sensor_id;sensor_type;location;lat;lon;timestamp;temperature;humidity
4687;DHT22;2357;47.316;-1.348;2023-07-02T00:01:46;17.60;99.90
4687;DHT22;2357;47.316;-1.348;2023-07-02T00:04:13;17.50;99.90
4687;DHT22;2357;47.316;-1.348;2023-07-02T00:06:42;17.50;99.90
4687;DHT22;2357;47.316;-1.348;2023-07-02T00:09:08;17.50;99.90
4687;DHT22;2357;47.316;-1.348;2023-07-02T00:11:36;17.50;99.90
4687;DHT22;2357;47.316;-1.348;2023-07-02T00:14:02;17.50;99.90
4687;DHT22;2357;47.316;-1.348;2023-07-02T00:16:27;17.40;99.90
4687;DHT22;2357;47.316;-1.348;2023-07-02T00:18:53;17.40;99.90
4687;DHT22;2357;47.316;-1.348;2023-07-02T00:21:19;17.30;99.90
4687;DHT22;2357;47.316;-1.348;2023-07-02T00:23:46;17.30;99.90
4687;DHT22;2357;47.316;-1.348;2023-07-02T00:26:12;17.30;99.90
4687;DHT22;2357;47.316;-1.348;2023-07-02T00:28:38;17.20;99.90
4687;DHT22;2357;47.316;-1.348;2023-07-02T00:31:03;17.30;99.90
4687;DHT22;2357;47.316;-1.348;2023-07-02T00:33:31;17.20;99.90
4687;DHT22;2357;47.316;-1.348;2023-07-02T00:35:57;17.20;99.90
4687;DHT22;2357;47.316;-1.348;2023-07-02T00:38:23;17.20;99.90
4687;DHT22;2357;47.316;-1.348;2023-07-02T00:40:49;17.10;99.90
4687;DHT22;2357;47.316;-1.348;2023-07-02T00:43:14;17.10;99.90
4687;DHT22;2357;47.316;-1.348;2023-07-02T00:45:40;17.10;99.90
4687;DHT22;2357;47.316;-1.348;2023-07-02T00:48:06;17.10;99.90
4687;DHT22;2357;47.316;-1.348;2023-07-02T00:50:32;17.00;99.90
4687;DHT22;2357;47.316;-1.348;2023-07-02T00:52:58;17.00;99.90
4687;DHT22;2357;47.316;-1.348;2023-07-02T00:55:24;17.00;99.90
4687;DHT22;2357;47.316;-1.348;2023-07-02T00:57:50;17.00;99.90
4687;DHT22;2357;47.316;-1.348;2023-07-02T01:00:15;17.00;99.90
4687;DHT22;2357;47.316;-1.348;2023-07-02T01:02:41;16.90;99.90
4687;DHT22;2357;47.316;-1.348;2023-07-02T01:05:19;16.90;99.90
4687;DHT22;2357;47.316;-1.348;2023-07-02T01:07:47;16.90;99.90
4687;DHT22;2357;47.316;-1.348;2023-07-02T01:10:12;16.90;99.90
4687;DHT22;2357;47.316;-1.348;2023-07-02T01:12:38;16.90;99.90
4687;DHT22;2357;47.316;-1.348;2023-07-02T01:15:05;16.80;99.90
4687;DHT22;2357;47.316;-1.348;2023-07-02T01:17:33;16.80;99.90
4687;DHT22;2357;47.316;-1.348;2023-07-02T01:20:03;16.80;99.90
4687;DHT22;2357;47.316;-1.348;2023-07-02T01:22:30;16.80;99.90
4687;DHT22;2357;47.316;-1.348;2023-07-02T01:24:56;16.70;99.90
4687;DHT22;2357;47.316;-1.348;2023-07-02T01:27:22;16.70;99.90
4687;DHT22;2357;47.316;-1.348;2023-07-02T01:29:52;16.70;99.90
4687;DHT22;2357;47.316;-1.348;2023-07-02T01:32:17;16.60;99.90
4687;DHT22;2357;47.316;-1.348;2023-07-02T01:34:43;16.60;99.90
4687;DHT22;2357;47.316;-1.348;2023-07-02T01:37:15;16.60;99.90
4687;DHT22;2357;47.316;-1.348;2023-07-02T01:39:42;16.60;99.90
4687;DHT22;2357;47.316;-1.348;2023-07-02T01:44:34;16.60;99.90
4687;DHT22;2357;47.316;-1.348;2023-07-02T01:46:59;16.50;99.90
4687;DHT22;2357;47.316;-1.348;2023-07-02T01:49:25;16.50;99.90
4687;DHT22;2357;47.316;-1.348;2023-07-02T01:51:52;16.40;99.90
4687;DHT22;2357;47.316;-1.348;2023-07-02T01:54:18;16.40;99.90
4687;DHT22;2357;47.316;-1.348;2023-07-02T01:56:44;16.40;99.90
4687;DHT22;2357;47.316;-1.348;2023-07-02T01:59:10;16.40;99.90
4687;DHT22;2357;47.316;-1.348;2023-07-02T02:01:36;16.40;99.90
4687;DHT22;2357;47.316;-1.348;2023-07-02T02:04:06;16.40;99.90
4687;DHT22;2357;47.316;-1.348;2023-07-02T02:06:32;16.30;99.90
4687;DHT22;2357;47.316;-1.348;2023-07-02T02:08:57;16.40;99.90
4687;DHT22;2357;47.316;-1.348;2023-07-02T02:11:23;16.40;99.90
4687;DHT22;2357;47.316;-1.348;2023-07-02T02:13:49;16.30;99.90
4687;DHT22;2357;47.316;-1.348;2023-07-02T02:16:15;16.30;99.90
4687;DHT22;2357;47.316;-1.348;2023-07-02T02:18:41;16.20;99.90
4687;DHT22;2357;47.316;-1.348;2023-07-02T02:21:06;16.30;99.90
4687;DHT22;2357;47.316;-1.348;2023-07-02T02:23:32;16.20;99.90
4687;DHT22;2357;47.316;-1.348;2023-07-02T02:25:58;16.20;99.90
4687;DHT22;2357;47.316;-1.348;2023-07-02T02:28:23;16.20;99.90
4687;DHT22;2357;47.316;-1.348;2023-07-02T02:30:49;16.10;99.90
4687;DHT22;2357;47.316;-1.348;2023-07-02T02:33:15;16.20;99.90
4687;DHT22;2357;47.316;-1.348;2023-07-02T02:35:40;16.20;99.90
4687;DHT22;2357;47.316;-1.348;2023-07-02T02:38:06;16.20;99.90
4687;DHT22;2357;47.316;-1.348;2023-07-02T02:40:31;16.10;99.90
4687;DHT22;2357;47.316;-1.348;2023-07-02T02:42:57;16.10;99.90
4687;DHT22;2357;47.316;-1.348;2023-07-02T02:45:23;16.10;99.90
4687;DHT22;2357;47.316;-1.348;2023-07-02T02:47:48;16.10;99.90
4687;DHT22;2357;47.316;-1.348;2023-07-02T02:50:14;16.10;99.90
4687;DHT22;2357;47.316;-1.348;2023-07-02T02:52:40;15.50;99.90
4687;DHT22;2357;47.316;-1.348;2023-07-02T02:55:06;15.50;99.90
4687;DHT22;2357;47.316;-1.348;2023-07-02T02:57:33;15.60;99.90
4687;DHT22;2357;47.316;-1.348;2023-07-02T02:59:59;15.70;99.90
4687;DHT22;2357;47.316;-1.348;2023-07-02T03:02:25;15.80;99.90
4687;DHT22;2357;47.316;-1.348;2023-07-02T03:04:51;15.80;99.90
4687;DHT22;2357;47.316;-1.348;2023-07-02T03:07:17;15.90;99.90
4687;DHT22;2357;47.316;-1.348;2023-07-02T03:09:42;15.90;99.90
4687;DHT22;2357;47.316;-1.348;2023-07-02T03:12:08;15.90;99.90
4687;DHT22;2357;47.316;-1.348;2023-07-02T03:14:34;15.90;99.90
4687;DHT22;2357;47.316;-1.348;2023-07-02T03:17:00;15.90;99.90
4687;DHT22;2357;47.316;-1.348;2023-07-02T03:19:26;15.90;99.90
4687;DHT22;2357;47.316;-1.348;2023-07-02T03:21:51;15.90;99.90
4687;DHT22;2357;47.316;-1.348;2023-07-02T03:24:17;15.90;99.90
4687;DHT22;2357;47.316;-1.348;2023-07-02T03:26:43;15.80;99.90
4687;DHT22;2357;47.316;-1.348;2023-07-02T03:29:09;15.80;99.90
4687;DHT22;2357;47.316;-1.348;2023-07-02T03:31:35;15.70;99.90
4687;DHT22;2357;47.316;-1.348;2023-07-02T03:34:07;15.80;99.90
4687;DHT22;2357;47.316;-1.348;2023-07-02T03:36:33;15.80;99.90
4687;DHT22;2357;47.316;-1.348;2023-07-02T03:38:58;15.70;99.90
4687;DHT22;2357;47.316;-1.348;2023-07-02T03:41:24;15.70;99.90
4687;DHT22;2357;47.316;-1.348;2023-07-02T03:43:50;15.60;99.90
4687;DHT22;2357;47.316;-1.348;2023-07-02T03:46:16;15.60;99.90
4687;DHT22;2357;47.316;-1.348;2023-07-02T03:48:42;15.60;99.90
4687;DHT22;2357;47.316;-1.348;2023-07-02T03:51:07;15.60;99.90
4687;DHT22;2357;47.316;-1.348;2023-07-02T03:53:33;15.50;99.90
4687;DHT22;2357;47.316;-1.348;2023-07-02T03:55:59;15.50;99.90
4687;DHT22;2357;47.316;-1.348;2023-07-02T03:58:24;15.50;99.90
4687;DHT22;2357;47.316;-1.348;2023-07-02T04:00:50;15.50;99.90
4687;DHT22;2357;47.316;-1.348;2023-07-02T04:03:18;15.50;99.90
4687;DHT22;2357;47.316;-1.348;2023-07-02T04:05:44;15.50;99.90
4687;DHT22;2357;47.316;-1.348;2023-07-02T04:08:10;15.40;99.90
4687;DHT22;2357;47.316;-1.348;2023-07-02T04:10:36;15.40;99.90
4687;DHT22;2357;47.316;-1.348;2023-07-02T04:13:02;15.40;99.90
4687;DHT22;2357;47.316;-1.348;2023-07-02T04:15:27;15.40;99.90
4687;DHT22;2357;47.316;-1.348;2023-07-02T04:17:53;15.40;99.90
4687;DHT22;2357;47.316;-1.348;2023-07-02T04:20:19;15.40;99.90
4687;DHT22;2357;47.316;-1.348;2023-07-02T04:22:46;15.40;99.90
4687;DHT22;2357;47.316;-1.348;2023-07-02T04:25:12;15.40;99.90
4687;DHT22;2357;47.316;-1.348;2023-07-02T04:27:44;15.40;99.90
4687;DHT22;2357;47.316;-1.348;2023-07-02T04:30:11;15.40;99.90
4687;DHT22;2357;47.316;-1.348;2023-07-02T04:32:37;15.40;99.90
4687;DHT22;2357;47.316;-1.348;2023-07-02T04:35:09;15.40;99.90
4687;DHT22;2357;47.316;-1.348;2023-07-02T04:37:35;15.40;99.90
4687;DHT22;2357;47.316;-1.348;2023-07-02T04:40:01;15.40;99.90
4687;DHT22;2357;47.316;-1.348;2023-07-02T04:42:27;15.40;99.90
4687;DHT22;2357;47.316;-1.348;2023-07-02T04:44:54;15.30;99.90
4687;DHT22;2357;47.316;-1.348;2023-07-02T04:47:20;15.40;99.90
4687;DHT22;2357;47.316;-1.348;2023-07-02T04:49:45;15.40;99.90
4687;DHT22;2357;47.316;-1.348;2023-07-02T04:52:11;15.40;99.90
4687;DHT22;2357;47.316;-1.348;2023-07-02T04:54:37;15.40;99.90
4687;DHT22;2357;47.316;-1.348;2023-07-02T04:57:03;15.40;99.90
4687;DHT22;2357;47.316;-1.348;2023-07-02T04:59:29;15.40;99.90
4687;DHT22;2357;47.316;-1.348;2023-07-02T05:01:54;15.50;99.90
4687;DHT22;2357;47.316;-1.348;2023-07-02T05:04:20;15.50;99.90
4687;DHT22;2357;47.316;-1.348;2023-07-02T05:06:46;15.50;99.90
4687;DHT22;2357;47.316;-1.348;2023-07-02T05:09:11;15.50;99.90
4687;DHT22;2357;47.316;-1.348;2023-07-02T05:11:37;15.60;99.90
4687;DHT22;2357;47.316;-1.348;2023-07-02T05:14:03;15.60;99.90
4687;DHT22;2357;47.316;-1.348;2023-07-02T05:16:28;15.70;99.90
4687;DHT22;2357;47.316;-1.348;2023-07-02T05:18:54;15.70;99.90
4687;DHT22;2357;47.316;-1.348;2023-07-02T05:21:20;15.70;99.90
4687;DHT22;2357;47.316;-1.348;2023-07-02T05:23:46;15.80;99.90
4687;DHT22;2357;47.316;-1.348;2023-07-02T05:26:12;15.80;99.90
4687;DHT22;2357;47.316;-1.348;2023-07-02T05:28:37;15.90;99.90
4687;DHT22;2357;47.316;-1.348;2023-07-02T05:31:03;15.90;99.90
4687;DHT22;2357;47.316;-1.348;2023-07-02T05:33:29;16.00;99.90
4687;DHT22;2357;47.316;-1.348;2023-07-02T05:35:56;16.00;99.90
4687;DHT22;2357;47.316;-1.348;2023-07-02T05:38:22;16.00;99.90
4687;DHT22;2357;47.316;-1.348;2023-07-02T05:40:48;16.00;99.90
4687;DHT22;2357;47.316;-1.348;2023-07-02T05:43:13;16.10;99.90
4687;DHT22;2357;47.316;-1.348;2023-07-02T05:45:39;16.20;99.90
4687;DHT22;2357;47.316;-1.348;2023-07-02T05:48:05;16.20;99.90
4687;DHT22;2357;47.316;-1.348;2023-07-02T05:50:30;16.30;99.90
4687;DHT22;2357;47.316;-1.348;2023-07-02T05:52:56;16.30;99.90
4687;DHT22;2357;47.316;-1.348;2023-07-02T05:55:21;16.40;99.90
4687;DHT22;2357;47.316;-1.348;2023-07-02T05:57:47;16.40;99.90
4687;DHT22;2357;47.316;-1.348;2023-07-02T06:00:13;16.50;99.90
4687;DHT22;2357;47.316;-1.348;2023-07-02T06:02:39;16.60;99.90
4687;DHT22;2357;47.316;-1.348;2023-07-02T06:05:05;16.70;99.90
4687;DHT22;2357;47.316;-1.348;2023-07-02T06:07:31;16.70;99.90
4687;DHT22;2357;47.316;-1.348;2023-07-02T06:09:56;16.70;99.90
4687;DHT22;2357;47.316;-1.348;2023-07-02T06:12:22;16.50;99.90
4687;DHT22;2357;47.316;-1.348;2023-07-02T06:14:48;16.60;99.90
4687;DHT22;2357;47.316;-1.348;2023-07-02T06:17:14;16.50;99.90
4687;DHT22;2357;47.316;-1.348;2023-07-02T06:19:40;16.70;99.90
4687;DHT22;2357;47.316;-1.348;2023-07-02T06:22:06;16.70;99.90
4687;DHT22;2357;47.316;-1.348;2023-07-02T06:24:32;16.80;99.90
4687;DHT22;2357;47.316;-1.348;2023-07-02T06:26:58;16.80;99.90
4687;DHT22;2357;47.316;-1.348;2023-07-02T06:29:24;16.90;99.90
4687;DHT22;2357;47.316;-1.348;2023-07-02T06:31:50;16.80;99.90
4687;DHT22;2357;47.316;-1.348;2023-07-02T06:34:16;16.80;99.90
4687;DHT22;2357;47.316;-1.348;2023-07-02T06:36:42;16.80;99.90
4687;DHT22;2357;47.316;-1.348;2023-07-02T06:39:07;16.60;99.90
4687;DHT22;2357;47.316;-1.348;2023-07-02T06:41:35;16.60;99.90
4687;DHT22;2357;47.316;-1.348;2023-07-02T06:44:00;16.60;99.90
4687;DHT22;2357;47.316;-1.348;2023-07-02T06:46:26;16.70;99.90
4687;DHT22;2357;47.316;-1.348;2023-07-02T06:48:52;16.70;99.90
4687;DHT22;2357;47.316;-1.348;2023-07-02T06:51:17;16.80;99.90
4687;DHT22;2357;47.316;-1.348;2023-07-02T06:53:45;16.90;99.90
4687;DHT22;2357;47.316;-1.348;2023-07-02T06:56:11;16.90;99.90
4687;DHT22;2357;47.316;-1.348;2023-07-02T06:58:36;16.90;99.90
4687;DHT22;2357;47.316;-1.348;2023-07-02T07:01:02;17.10;99.90
4687;DHT22;2357;47.316;-1.348;2023-07-02T07:03:28;17.00;99.90
4687;DHT22;2357;47.316;-1.348;2023-07-02T07:05:54;17.00;99.90
4687;DHT22;2357;47.316;-1.348;2023-07-02T07:08:19;17.10;99.90
4687;DHT22;2357;47.316;-1.348;2023-07-02T07:10:45;17.10;99.90
4687;DHT22;2357;47.316;-1.348;2023-07-02T07:13:11;17.20;99.90
4687;DHT22;2357;47.316;-1.348;2023-07-02T07:15:37;17.30;99.90
4687;DHT22;2357;47.316;-1.348;2023-07-02T07:18:03;17.20;99.90
4687;DHT22;2357;47.316;-1.348;2023-07-02T07:20:32;17.30;99.90
4687;DHT22;2357;47.316;-1.348;2023-07-02T07:22:57;17.30;99.90
4687;DHT22;2357;47.316;-1.348;2023-07-02T07:25:23;17.40;99.90
4687;DHT22;2357;47.316;-1.348;2023-07-02T07:27:49;17.60;99.90
4687;DHT22;2357;47.316;-1.348;2023-07-02T07:30:15;17.60;99.90
4687;DHT22;2357;47.316;-1.348;2023-07-02T07:32:41;17.60;99.90
4687;DHT22;2357;47.316;-1.348;2023-07-02T07:35:07;17.60;99.90
4687;DHT22;2357;47.316;-1.348;2023-07-02T07:37:33;17.70;99.90
4687;DHT22;2357;47.316;-1.348;2023-07-02T07:39:58;17.80;99.90
4687;DHT22;2357;47.316;-1.348;2023-07-02T07:42:24;17.90;99.90
4687;DHT22;2357;47.316;-1.348;2023-07-02T07:44:50;17.90;99.90
4687;DHT22;2357;47.316;-1.348;2023-07-02T07:47:15;17.90;99.90
4687;DHT22;2357;47.316;-1.348;2023-07-02T07:49:41;18.00;99.90
4687;DHT22;2357;47.316;-1.348;2023-07-02T07:52:07;18.00;99.90
4687;DHT22;2357;47.316;-1.348;2023-07-02T07:54:34;18.00;99.90
4687;DHT22;2357;47.316;-1.348;2023-07-02T07:57:04;18.20;99.90
4687;DHT22;2357;47.316;-1.348;2023-07-02T07:59:30;18.10;99.90
4687;DHT22;2357;47.316;-1.348;2023-07-02T08:01:55;18.20;99.90
4687;DHT22;2357;47.316;-1.348;2023-07-02T08:04:21;18.10;99.90
4687;DHT22;2357;47.316;-1.348;2023-07-02T08:06:46;18.20;99.90
4687;DHT22;2357;47.316;-1.348;2023-07-02T08:09:12;18.20;99.90
4687;DHT22;2357;47.316;-1.348;2023-07-02T08:11:38;18.40;99.90
4687;DHT22;2357;47.316;-1.348;2023-07-02T08:14:03;18.50;99.90
4687;DHT22;2357;47.316;-1.348;2023-07-02T08:16:29;18.60;99.90
4687;DHT22;2357;47.316;-1.348;2023-07-02T08:18:55;18.50;99.90
4687;DHT22;2357;47.316;-1.348;2023-07-02T08:21:20;18.60;99.90
4687;DHT22;2357;47.316;-1.348;2023-07-02T08:23:46;18.80;99.90
4687;DHT22;2357;47.316;-1.348;2023-07-02T08:26:11;18.90;99.90
4687;DHT22;2357;47.316;-1.348;2023-07-02T08:28:37;18.90;99.90
4687;DHT22;2357;47.316;-1.348;2023-07-02T08:31:04;19.30;99.90
4687;DHT22;2357;47.316;-1.348;2023-07-02T08:33:30;19.30;99.90
4687;DHT22;2357;47.316;-1.348;2023-07-02T08:35:56;18.90;99.90
4687;DHT22;2357;47.316;-1.348;2023-07-02T08:38:23;18.90;99.90
4687;DHT22;2357;47.316;-1.348;2023-07-02T08:40:51;19.10;99.90
4687;DHT22;2357;47.316;-1.348;2023-07-02T08:43:17;19.30;99.90
4687;DHT22;2357;47.316;-1.348;2023-07-02T08:45:43;19.20;99.90
4687;DHT22;2357;47.316;-1.348;2023-07-02T08:48:10;19.20;99.90
4687;DHT22;2357;47.316;-1.348;2023-07-02T08:50:36;19.00;99.90
4687;DHT22;2357;47.316;-1.348;2023-07-02T08:53:02;19.00;99.90
4687;DHT22;2357;47.316;-1.348;2023-07-02T08:55:28;19.20;99.90
4687;DHT22;2357;47.316;-1.348;2023-07-02T08:57:56;19.40;99.90
4687;DHT22;2357;47.316;-1.348;2023-07-02T09:00:25;19.40;99.90
4687;DHT22;2357;47.316;-1.348;2023-07-02T09:02:51;19.70;99.90
4687;DHT22;2357;47.316;-1.348;2023-07-02T09:05:16;19.80;99.90
4687;DHT22;2357;47.316;-1.348;2023-07-02T09:07:46;19.70;99.90
4687;DHT22;2357;47.316;-1.348;2023-07-02T09:10:12;19.60;99.90
4687;DHT22;2357;47.316;-1.348;2023-07-02T09:12:38;19.40;99.90
4687;DHT22;2357;47.316;-1.348;2023-07-02T09:15:05;19.00;99.90
4687;DHT22;2357;47.316;-1.348;2023-07-02T09:17:36;19.20;99.90
4687;DHT22;2357;47.316;-1.348;2023-07-02T09:20:06;19.30;99.90
4687;DHT22;2357;47.316;-1.348;2023-07-02T09:22:35;19.50;99.90
4687;DHT22;2357;47.316;-1.348;2023-07-02T09:25:02;19.90;99.90
4687;DHT22;2357;47.316;-1.348;2023-07-02T09:27:35;19.90;99.90
4687;DHT22;2357;47.316;-1.348;2023-07-02T09:30:12;20.20;99.90
4687;DHT22;2357;47.316;-1.348;2023-07-02T09:32:40;20.50;99.90
4687;DHT22;2357;47.316;-1.348;2023-07-02T09:35:05;20.70;99.90
4687;DHT22;2357;47.316;-1.348;2023-07-02T09:37:32;20.70;99.90
4687;DHT22;2357;47.316;-1.348;2023-07-02T09:39:58;20.50;99.90
4687;DHT22;2357;47.316;-1.348;2023-07-02T09:42:25;20.20;99.90
4687;DHT22;2357;47.316;-1.348;2023-07-02T09:44:55;20.50;99.90
4687;DHT22;2357;47.316;-1.348;2023-07-02T09:47:22;21.00;99.90
4687;DHT22;2357;47.316;-1.348;2023-07-02T09:52:17;21.10;99.90
4687;DHT22;2357;47.316;-1.348;2023-07-02T09:54:44;21.30;99.90
4687;DHT22;2357;47.316;-1.348;2023-07-02T09:57:10;21.30;99.90
4687;DHT22;2357;47.316;-1.348;2023-07-02T09:59:37;21.00;99.90
4687;DHT22;2357;47.316;-1.348;2023-07-02T10:02:03;21.00;99.90
4687;DHT22;2357;47.316;-1.348;2023-07-02T10:04:39;21.10;99.90
4687;DHT22;2357;47.316;-1.348;2023-07-02T10:07:05;21.20;99.90
4687;DHT22;2357;47.316;-1.348;2023-07-02T10:12:01;21.70;99.90
4687;DHT22;2357;47.316;-1.348;2023-07-02T10:14:27;22.10;99.90
4687;DHT22;2357;47.316;-1.348;2023-07-02T10:16:54;21.80;99.90
4687;DHT22;2357;47.316;-1.348;2023-07-02T10:19:20;21.80;99.90
4687;DHT22;2357;47.316;-1.348;2023-07-02T10:21:46;21.80;99.90
4687;DHT22;2357;47.316;-1.348;2023-07-02T10:24:16;21.70;99.90
4687;DHT22;2357;47.316;-1.348;2023-07-02T10:27:11;21.80;99.90
4687;DHT22;2357;47.316;-1.348;2023-07-02T10:29:38;21.70;99.90
4687;DHT22;2357;47.316;-1.348;2023-07-02T10:32:26;21.40;99.90
4687;DHT22;2357;47.316;-1.348;2023-07-02T10:34:53;21.30;99.90
4687;DHT22;2357;47.316;-1.348;2023-07-02T10:37:19;21.20;99.90
4687;DHT22;2357;47.316;-1.348;2023-07-02T10:39:45;21.30;99.90
4687;DHT22;2357;47.316;-1.348;2023-07-02T10:42:11;21.10;99.90
4687;DHT22;2357;47.316;-1.348;2023-07-02T10:44:54;21.10;99.90
4687;DHT22;2357;47.316;-1.348;2023-07-02T10:47:20;21.30;99.90
4687;DHT22;2357;47.316;-1.348;2023-07-02T10:49:46;21.40;99.90
4687;DHT22;2357;47.316;-1.348;2023-07-02T10:52:11;21.70;99.90
4687;DHT22;2357;47.316;-1.348;2023-07-02T10:54:47;21.90;99.90
4687;DHT22;2357;47.316;-1.348;2023-07-02T10:57:14;21.90;99.90
4687;DHT22;2357;47.316;-1.348;2023-07-02T10:59:41;22.00;99.90
4687;DHT22;2357;47.316;-1.348;2023-07-02T11:02:08;21.80;99.90
4687;DHT22;2357;47.316;-1.348;2023-07-02T11:04:36;21.70;99.90
4687;DHT22;2357;47.316;-1.348;2023-07-02T11:07:04;21.50;99.90
4687;DHT22;2357;47.316;-1.348;2023-07-02T11:09:29;21.30;99.90
4687;DHT22;2357;47.316;-1.348;2023-07-02T11:11:59;21.40;99.90
4687;DHT22;2357;47.316;-1.348;2023-07-02T11:14:36;21.40;99.90
4687;DHT22;2357;47.316;-1.348;2023-07-02T11:17:06;21.50;99.90
4687;DHT22;2357;47.316;-1.348;2023-07-02T11:19:35;21.60;99.90
4687;DHT22;2357;47.316;-1.348;2023-07-02T11:22:01;21.50;99.90
4687;DHT22;2357;47.316;-1.348;2023-07-02T11:24:36;21.30;99.90
4687;DHT22;2357;47.316;-1.348;2023-07-02T11:27:05;21.20;99.90
4687;DHT22;2357;47.316;-1.348;2023-07-02T11:29:31;21.30;99.90
4687;DHT22;2357;47.316;-1.348;2023-07-02T11:32:12;21.40;99.90
4687;DHT22;2357;47.316;-1.348;2023-07-02T11:34:39;21.80;99.90
4687;DHT22;2357;47.316;-1.348;2023-07-02T11:37:05;21.60;99.90
4687;DHT22;2357;47.316;-1.348;2023-07-02T11:39:31;21.80;99.90
4687;DHT22;2357;47.316;-1.348;2023-07-02T11:41:57;22.00;99.90
4687;DHT22;2357;47.316;-1.348;2023-07-02T11:44:24;21.90;99.90
4687;DHT22;2357;47.316;-1.348;2023-07-02T11:46:49;22.10;99.90
4687;DHT22;2357;47.316;-1.348;2023-07-02T11:49:15;22.10;99.90
4687;DHT22;2357;47.316;-1.348;2023-07-02T11:51:42;21.80;99.90
4687;DHT22;2357;47.316;-1.348;2023-07-02T11:54:13;21.60;99.90
4687;DHT22;2357;47.316;-1.348;2023-07-02T11:56:39;21.50;99.90
4687;DHT22;2357;47.316;-1.348;2023-07-02T11:59:07;21.30;99.90
4687;DHT22;2357;47.316;-1.348;2023-07-02T12:01:33;21.50;99.90
4687;DHT22;2357;47.316;-1.348;2023-07-02T12:03:59;21.60;99.90
4687;DHT22;2357;47.316;-1.348;2023-07-02T12:06:24;21.40;99.90
4687;DHT22;2357;47.316;-1.348;2023-07-02T12:08:50;21.70;99.90
4687;DHT22;2357;47.316;-1.348;2023-07-02T12:11:15;21.50;99.90
4687;DHT22;2357;47.316;-1.348;2023-07-02T12:13:41;21.70;99.90
4687;DHT22;2357;47.316;-1.348;2023-07-02T12:16:07;21.80;99.90
4687;DHT22;2357;47.316;-1.348;2023-07-02T12:18:33;21.80;99.90
4687;DHT22;2357;47.316;-1.348;2023-07-02T12:20:58;21.50;99.90
4687;DHT22;2357;47.316;-1.348;2023-07-02T12:23:24;21.90;99.90
4687;DHT22;2357;47.316;-1.348;2023-07-02T12:25:49;22.10;99.90
4687;DHT22;2357;47.316;-1.348;2023-07-02T12:28:15;22.00;99.90
4687;DHT22;2357;47.316;-1.348;2023-07-02T12:30:41;21.90;99.90
4687;DHT22;2357;47.316;-1.348;2023-07-02T12:33:06;21.90;99.90
4687;DHT22;2357;47.316;-1.348;2023-07-02T12:35:32;21.90;99.90
4687;DHT22;2357;47.316;-1.348;2023-07-02T12:37:58;21.90;99.90
4687;DHT22;2357;47.316;-1.348;2023-07-02T12:40:23;21.90;99.90
4687;DHT22;2357;47.316;-1.348;2023-07-02T12:42:49;22.00;99.90
4687;DHT22;2357;47.316;-1.348;2023-07-02T12:45:15;22.20;99.90
4687;DHT22;2357;47.316;-1.348;2023-07-02T12:47:42;22.40;99.90
4687;DHT22;2357;47.316;-1.348;2023-07-02T12:50:09;22.50;99.90
4687;DHT22;2357;47.316;-1.348;2023-07-02T12:52:35;22.40;99.90
4687;DHT22;2357;47.316;-1.348;2023-07-02T12:55:01;22.20;99.90
4687;DHT22;2357;47.316;-1.348;2023-07-02T12:57:27;22.20;99.90
4687;DHT22;2357;47.316;-1.348;2023-07-02T12:59:56;22.10;99.90
4687;DHT22;2357;47.316;-1.348;2023-07-02T13:02:23;22.10;99.90
4687;DHT22;2357;47.316;-1.348;2023-07-02T13:04:49;22.10;99.90
4687;DHT22;2357;47.316;-1.348;2023-07-02T13:07:15;22.40;99.90
4687;DHT22;2357;47.316;-1.348;2023-07-02T13:09:40;22.70;99.90
4687;DHT22;2357;47.316;-1.348;2023-07-02T13:12:07;23.00;99.90
4687;DHT22;2357;47.316;-1.348;2023-07-02T13:14:34;22.80;99.90
4687;DHT22;2357;47.316;-1.348;2023-07-02T13:16:59;22.80;99.90
4687;DHT22;2357;47.316;-1.348;2023-07-02T13:19:25;22.50;99.90
4687;DHT22;2357;47.316;-1.348;2023-07-02T13:21:51;22.30;99.90
4687;DHT22;2357;47.316;-1.348;2023-07-02T13:24:16;22.30;99.90
4687;DHT22;2357;47.316;-1.348;2023-07-02T13:26:42;22.30;99.90
4687;DHT22;2357;47.316;-1.348;2023-07-02T13:29:08;22.00;99.90
4687;DHT22;2357;47.316;-1.348;2023-07-02T13:31:33;21.90;99.90
4687;DHT22;2357;47.316;-1.348;2023-07-02T13:33:59;21.70;99.90
4687;DHT22;2357;47.316;-1.348;2023-07-02T13:36:25;21.60;99.90
4687;DHT22;2357;47.316;-1.348;2023-07-02T13:38:53;21.40;99.90
4687;DHT22;2357;47.316;-1.348;2023-07-02T13:41:19;21.30;99.90
4687;DHT22;2357;47.316;-1.348;2023-07-02T13:43:45;21.20;99.90
4687;DHT22;2357;47.316;-1.348;2023-07-02T13:46:10;21.20;99.90
4687;DHT22;2357;47.316;-1.348;2023-07-02T13:48:36;21.30;99.90
4687;DHT22;2357;47.316;-1.348;2023-07-02T13:51:01;21.30;99.90
4687;DHT22;2357;47.316;-1.348;2023-07-02T13:53:27;21.20;99.90
4687;DHT22;2357;47.316;-1.348;2023-07-02T13:55:53;21.10;99.90
4687;DHT22;2357;47.316;-1.348;2023-07-02T13:58:18;20.90;99.90
4687;DHT22;2357;47.316;-1.348;2023-07-02T14:00:44;20.80;99.90
4687;DHT22;2357;47.316;-1.348;2023-07-02T14:03:09;20.80;99.90
4687;DHT22;2357;47.316;-1.348;2023-07-02T14:05:35;20.80;99.90
4687;DHT22;2357;47.316;-1.348;2023-07-02T14:08:01;20.90;99.90
4687;DHT22;2357;47.316;-1.348;2023-07-02T14:10:26;21.00;99.90
4687;DHT22;2357;47.316;-1.348;2023-07-02T14:12:54;21.20;99.90
4687;DHT22;2357;47.316;-1.348;2023-07-02T14:15:19;21.30;99.90
4687;DHT22;2357;47.316;-1.348;2023-07-02T14:17:45;21.30;99.90
4687;DHT22;2357;47.316;-1.348;2023-07-02T14:20:11;21.40;99.90
4687;DHT22;2357;47.316;-1.348;2023-07-02T14:22:37;21.40;99.90
4687;DHT22;2357;47.316;-1.348;2023-07-02T14:25:03;21.50;99.90
4687;DHT22;2357;47.316;-1.348;2023-07-02T14:27:29;21.40;99.90
4687;DHT22;2357;47.316;-1.348;2023-07-02T14:29:54;21.30;99.90
4687;DHT22;2357;47.316;-1.348;2023-07-02T14:32:20;21.40;99.90
4687;DHT22;2357;47.316;-1.348;2023-07-02T14:34:46;21.60;99.90
4687;DHT22;2357;47.316;-1.348;2023-07-02T14:37:11;21.70;99.90
4687;DHT22;2357;47.316;-1.348;2023-07-02T14:39:37;21.70;99.90
4687;DHT22;2357;47.316;-1.348;2023-07-02T14:42:03;21.90;99.90
4687;DHT22;2357;47.316;-1.348;2023-07-02T14:44:29;21.90;99.90
4687;DHT22;2357;47.316;-1.348;2023-07-02T14:46:54;21.80;99.90
4687;DHT22;2357;47.316;-1.348;2023-07-02T14:49:20;21.70;99.90
4687;DHT22;2357;47.316;-1.348;2023-07-02T14:51:46;21.60;99.90
4687;DHT22;2357;47.316;-1.348;2023-07-02T14:54:12;21.40;99.90
4687;DHT22;2357;47.316;-1.348;2023-07-02T14:56:37;21.30;99.90
4687;DHT22;2357;47.316;-1.348;2023-07-02T14:59:04;21.20;99.90
4687;DHT22;2357;47.316;-1.348;2023-07-02T15:01:29;21.20;99.90
4687;DHT22;2357;47.316;-1.348;2023-07-02T15:03:55;21.10;99.90
4687;DHT22;2357;47.316;-1.348;2023-07-02T15:06:21;21.00;99.90
4687;DHT22;2357;47.316;-1.348;2023-07-02T15:08:47;20.90;99.90
4687;DHT22;2357;47.316;-1.348;2023-07-02T15:11:14;20.70;99.90
4687;DHT22;2357;47.316;-1.348;2023-07-02T15:13:40;20.70;99.90
4687;DHT22;2357;47.316;-1.348;2023-07-02T15:16:07;20.60;99.90
4687;DHT22;2357;47.316;-1.348;2023-07-02T15:18:33;20.70;99.90
4687;DHT22;2357;47.316;-1.348;2023-07-02T15:20:59;20.80;99.90
4687;DHT22;2357;47.316;-1.348;2023-07-02T15:23:27;20.80;99.90
4687;DHT22;2357;47.316;-1.348;2023-07-02T15:26:03;21.00;99.90
4687;DHT22;2357;47.316;-1.348;2023-07-02T15:28:30;21.10;99.90
4687;DHT22;2357;47.316;-1.348;2023-07-02T15:31:02;21.20;99.90
4687;DHT22;2357;47.316;-1.348;2023-07-02T15:33:28;21.30;99.90
4687;DHT22;2357;47.316;-1.348;2023-07-02T15:35:54;21.30;99.90
4687;DHT22;2357;47.316;-1.348;2023-07-02T15:38:20;21.40;99.90
4687;DHT22;2357;47.316;-1.348;2023-07-02T15:40:47;21.40;99.90
4687;DHT22;2357;47.316;-1.348;2023-07-02T15:43:13;21.20;99.90
4687;DHT22;2357;47.316;-1.348;2023-07-02T15:45:39;21.10;99.90
4687;DHT22;2357;47.316;-1.348;2023-07-02T15:48:05;21.10;99.90